TAF KHRO
KHRO 280533Z 2806/2906 29007KT P6SM SCT250 FM281600 35010KT P6SM SKC FM290000 VRB02KT P6SM SKC=
METAR KHRO
WC KHRO
WS KHRO
WV KHRO